createdAt,value
2018-07-03T00:01:36.569Z,1.80
2018-07-03T00:04:06.090Z,1.60
2018-07-03T00:06:35.460Z,1.90
2018-07-03T00:09:07.413Z,1.80
2018-07-03T00:11:36.828Z,1.80
2018-07-03T00:14:06.458Z,1.67
2018-07-03T00:16:41.514Z,1.85
2018-07-03T00:19:12.046Z,1.67
2018-07-03T00:21:41.340Z,1.73
2018-07-03T00:24:10.662Z,1.87
2018-07-03T00:26:40.016Z,1.83
2018-07-03T00:29:09.478Z,1.93
2018-07-03T00:31:38.807Z,1.87
2018-07-03T00:34:08.168Z,1.83
2018-07-03T00:36:37.519Z,1.70
2018-07-03T00:39:09.144Z,2.00
2018-07-03T00:41:38.423Z,1.70
2018-07-03T00:44:07.849Z,2.17
2018-07-03T00:46:37.118Z,1.70
2018-07-03T00:49:06.498Z,2.00
2018-07-03T00:51:35.802Z,1.90
2018-07-03T00:54:05.231Z,1.90
2018-07-03T00:56:34.630Z,1.87
2018-07-03T00:59:04.171Z,1.90
2018-07-03T01:01:33.621Z,2.02
2018-07-03T01:04:02.936Z,1.87
2018-07-03T01:06:32.335Z,2.00
2018-07-03T01:09:01.802Z,1.80
2018-07-03T01:11:31.285Z,2.27
2018-07-03T01:14:00.630Z,2.20
2018-07-03T01:16:29.962Z,2.00
2018-07-03T01:18:59.364Z,2.00
2018-07-03T01:21:28.673Z,1.83
2018-07-03T01:23:58.074Z,2.07
2018-07-03T01:26:27.414Z,1.73
2018-07-03T01:28:56.855Z,1.80
2018-07-03T01:31:26.165Z,1.80
2018-07-03T01:33:55.426Z,1.80
2018-07-03T01:36:24.811Z,1.67
2018-07-03T01:38:54.171Z,1.60
2018-07-03T01:41:23.707Z,1.70
2018-07-03T01:43:53.235Z,1.90
2018-07-03T01:46:22.515Z,1.60
2018-07-03T01:48:51.884Z,1.77
2018-07-03T01:51:21.189Z,1.70
2018-07-03T01:53:50.503Z,2.00
2018-07-03T01:56:19.945Z,2.13
2018-07-03T01:58:49.256Z,2.00
2018-07-03T02:01:18.659Z,1.87
2018-07-03T02:03:47.943Z,2.07
2018-07-03T02:06:17.306Z,2.33
2018-07-03T02:08:46.637Z,1.90
2018-07-03T02:11:16.035Z,2.00
2018-07-03T02:13:45.126Z,1.97
2018-07-03T02:16:14.408Z,1.70
2018-07-03T02:18:43.737Z,2.07
2018-07-03T02:21:13.058Z,2.00
2018-07-03T02:23:42.351Z,2.02
2018-07-03T02:26:11.694Z,2.10
2018-07-03T02:28:41.047Z,2.20
2018-07-03T02:31:10.403Z,2.17
2018-07-03T02:33:39.743Z,2.00
2018-07-03T02:36:09.044Z,2.07
2018-07-03T02:38:38.401Z,2.10
2018-07-03T02:41:08.438Z,2.27
2018-07-03T02:43:37.908Z,2.30
2018-07-03T02:46:07.542Z,2.20
2018-07-03T02:48:36.956Z,1.90
2018-07-03T02:51:06.310Z,2.27
2018-07-03T02:53:35.527Z,2.30
2018-07-03T02:56:04.958Z,2.30
2018-07-03T02:58:34.320Z,2.33
2018-07-03T03:01:03.691Z,2.37
2018-07-03T03:03:33.047Z,2.43
2018-07-03T03:06:02.419Z,2.50
2018-07-03T03:08:31.715Z,2.20
2018-07-03T03:11:01.088Z,2.70
2018-07-03T03:13:30.508Z,2.57
2018-07-03T03:15:59.953Z,2.40
2018-07-03T03:18:29.443Z,2.03
2018-07-03T03:20:58.810Z,2.03
2018-07-03T03:23:28.233Z,2.30
2018-07-03T03:25:57.558Z,2.23
2018-07-03T03:28:26.871Z,2.10
2018-07-03T03:30:56.205Z,2.37
2018-07-03T03:33:25.736Z,2.20
2018-07-03T03:35:55.098Z,2.10
2018-07-03T03:38:24.660Z,2.30
2018-07-03T03:40:54.029Z,2.00
2018-07-03T03:43:23.394Z,2.07
2018-07-03T03:45:52.870Z,2.10
2018-07-03T03:48:22.337Z,2.37
2018-07-03T03:50:52.226Z,2.40
2018-07-03T03:56:05.686Z,2.27
2018-07-03T03:58:35.090Z,2.20
2018-07-03T04:01:04.576Z,2.30
2018-07-03T04:03:33.977Z,2.20
2018-07-03T04:06:03.389Z,2.00
2018-07-03T04:08:32.792Z,2.10
2018-07-03T04:11:02.271Z,2.47
2018-07-03T04:13:31.773Z,2.00
2018-07-03T04:16:01.408Z,2.07
2018-07-03T04:18:33.425Z,2.13
2018-07-03T04:21:04.524Z,1.70
2018-07-03T04:23:35.019Z,1.70
2018-07-03T04:26:04.636Z,1.73
2018-07-03T04:28:34.726Z,1.70
2018-07-03T04:31:04.319Z,1.53
2018-07-03T04:33:33.711Z,1.60
2018-07-03T04:36:03.123Z,1.80
2018-07-03T04:38:32.498Z,1.80
2018-07-03T04:41:01.925Z,1.70
2018-07-03T04:43:31.541Z,1.83
2018-07-03T04:46:01.186Z,1.70
2018-07-03T04:48:30.721Z,1.70
2018-07-03T04:51:00.143Z,2.00
2018-07-03T04:53:29.727Z,2.37
2018-07-03T04:55:59.229Z,1.90
2018-07-03T04:58:28.840Z,2.10
2018-07-03T05:00:58.436Z,2.10
2018-07-03T05:03:27.822Z,2.20
2018-07-03T05:05:57.167Z,2.20
2018-07-03T05:08:26.518Z,2.60
2018-07-03T05:10:55.807Z,2.50
2018-07-03T05:13:25.250Z,2.13
2018-07-03T05:15:54.716Z,2.10
2018-07-03T05:18:24.230Z,1.85
2018-07-03T05:20:53.688Z,1.90
2018-07-03T05:23:23.140Z,2.10
2018-07-03T05:25:52.487Z,1.80
2018-07-03T05:28:21.970Z,1.87
2018-07-03T05:30:51.340Z,2.17
2018-07-03T05:33:20.861Z,2.40
2018-07-03T05:35:50.319Z,2.10
2018-07-03T05:38:19.723Z,2.03
2018-07-03T05:40:49.134Z,2.10
2018-07-03T05:43:18.743Z,1.73
2018-07-03T05:45:48.188Z,1.93
2018-07-03T05:48:17.700Z,2.07
2018-07-03T05:50:47.083Z,1.90
2018-07-03T05:53:16.983Z,2.30
2018-07-03T05:55:46.554Z,2.05
2018-07-03T05:58:15.875Z,1.87
2018-07-03T06:00:45.253Z,2.00
2018-07-03T06:03:14.643Z,1.90
2018-07-03T06:05:44.272Z,1.80
2018-07-03T06:08:13.513Z,1.93
2018-07-03T06:10:43.002Z,2.20
2018-07-03T06:13:12.411Z,1.87
2018-07-03T06:15:41.940Z,1.72
2018-07-03T06:18:11.431Z,1.70
2018-07-03T06:20:40.768Z,2.00
2018-07-03T06:23:10.192Z,2.15
2018-07-03T06:25:39.583Z,1.70
2018-07-03T06:28:08.984Z,1.90
2018-07-03T06:30:38.335Z,2.40
2018-07-03T06:33:07.826Z,2.07
2018-07-03T06:35:37.582Z,2.10
2018-07-03T06:38:06.972Z,1.90
2018-07-03T06:40:36.280Z,1.80
2018-07-03T06:43:05.677Z,1.70
2018-07-03T06:45:35.059Z,1.62
2018-07-03T06:48:04.410Z,1.50
2018-07-03T06:50:33.733Z,1.40
2018-07-03T06:53:03.087Z,1.80
2018-07-03T06:55:32.410Z,1.40
2018-07-03T06:58:01.771Z,1.42
2018-07-03T07:00:31.143Z,1.50
2018-07-03T07:03:00.518Z,1.70
2018-07-03T07:05:29.974Z,1.40
2018-07-03T07:07:59.441Z,1.40
2018-07-03T07:10:28.762Z,1.50
2018-07-03T07:12:58.090Z,8.63
2018-07-03T07:15:27.506Z,1.47
2018-07-03T07:17:56.840Z,1.30
2018-07-03T07:20:26.242Z,1.20
2018-07-03T07:22:55.653Z,1.13
2018-07-03T07:25:24.996Z,1.15
2018-07-03T07:27:54.322Z,1.03
2018-07-03T07:30:23.748Z,1.17
2018-07-03T07:32:53.260Z,1.20
2018-07-03T07:35:22.669Z,1.10
2018-07-03T07:37:52.035Z,1.15
2018-07-03T07:40:21.424Z,1.10
2018-07-03T07:42:50.819Z,1.30
2018-07-03T07:45:20.177Z,1.20
2018-07-03T07:47:49.729Z,1.30
2018-07-03T07:50:18.992Z,1.10
2018-07-03T07:52:48.383Z,0.93
2018-07-03T07:55:17.759Z,1.30
2018-07-03T07:57:47.158Z,1.30
2018-07-03T08:00:16.543Z,1.17
2018-07-03T08:02:45.911Z,1.27
2018-07-03T08:05:15.283Z,1.50
2018-07-03T08:07:44.530Z,1.07
2018-07-03T08:10:13.859Z,1.20
2018-07-03T08:12:43.158Z,1.20
2018-07-03T08:15:12.552Z,1.20
2018-07-03T08:17:41.907Z,1.27
2018-07-03T08:20:11.238Z,1.10
2018-07-03T08:22:40.611Z,1.10
2018-07-03T08:25:09.971Z,1.20
2018-07-03T08:27:39.431Z,1.20
2018-07-03T08:30:09.254Z,1.30
2018-07-03T08:32:38.558Z,1.17
2018-07-03T08:35:08.145Z,1.30
2018-07-03T08:37:37.562Z,1.17
2018-07-03T08:40:07.960Z,1.30
2018-07-03T08:42:37.765Z,1.15
2018-07-03T08:45:07.620Z,1.47
2018-07-03T08:47:36.962Z,1.30
2018-07-03T08:50:06.389Z,1.20
2018-07-03T08:52:35.708Z,1.12
2018-07-03T08:55:05.103Z,1.10
2018-07-03T08:57:34.467Z,1.23
2018-07-03T09:00:03.895Z,1.37
2018-07-03T09:02:33.200Z,1.22
2018-07-03T09:05:02.620Z,1.33
2018-07-03T09:07:31.920Z,1.27
2018-07-03T09:10:01.261Z,1.03
2018-07-03T09:12:30.942Z,1.40
2018-07-03T09:15:00.303Z,1.12
2018-07-03T09:17:30.249Z,1.20
2018-07-03T09:20:01.046Z,1.30
2018-07-03T09:22:31.238Z,1.20
2018-07-03T09:25:00.616Z,1.20
2018-07-03T09:27:30.019Z,1.25
2018-07-03T09:29:59.410Z,1.47
2018-07-03T09:32:28.795Z,1.32
2018-07-03T09:34:58.258Z,1.30
2018-07-03T09:37:27.630Z,1.10
2018-07-03T09:39:57.022Z,1.30
2018-07-03T09:42:26.430Z,1.15
2018-07-03T09:44:55.796Z,1.20
2018-07-03T09:47:25.201Z,1.32
2018-07-03T09:49:54.599Z,1.43
2018-07-03T09:52:24.065Z,1.30
2018-07-03T09:54:53.402Z,1.20
2018-07-03T09:57:22.720Z,1.02
2018-07-03T09:59:52.091Z,1.40
2018-07-03T10:02:21.508Z,1.40
2018-07-03T10:04:50.831Z,1.30
2018-07-03T10:07:20.146Z,1.10
2018-07-03T10:09:50.160Z,1.25
2018-07-03T10:12:19.590Z,1.30
2018-07-03T10:14:48.938Z,1.20
2018-07-03T10:17:18.255Z,1.00
2018-07-03T10:19:47.643Z,1.15
2018-07-03T10:22:16.957Z,1.20
2018-07-03T10:24:46.261Z,1.15
2018-07-03T10:27:15.604Z,1.00
2018-07-03T10:29:45.066Z,1.10
2018-07-03T10:32:14.595Z,1.15
2018-07-03T10:34:43.939Z,1.17
2018-07-03T10:37:13.380Z,1.20
2018-07-03T10:39:42.794Z,1.07
2018-07-03T10:42:12.165Z,1.10
2018-07-03T10:44:41.517Z,1.10
2018-07-03T10:47:10.860Z,1.20
2018-07-03T10:49:40.148Z,1.10
2018-07-03T10:52:09.466Z,1.20
2018-07-03T10:54:39.038Z,1.67
2018-07-03T10:57:09.806Z,1.20
2018-07-03T10:59:39.183Z,1.37
2018-07-03T11:02:08.707Z,1.17
2018-07-03T11:04:38.138Z,1.20
2018-07-03T11:07:08.141Z,1.30
2018-07-03T11:09:37.815Z,1.10
2018-07-03T11:12:07.178Z,1.20
2018-07-03T11:14:36.558Z,1.35
2018-07-03T11:17:06.129Z,1.10
2018-07-03T11:19:36.311Z,1.20
2018-07-03T11:22:05.624Z,1.30
2018-07-03T11:24:34.964Z,1.40
2018-07-03T11:27:04.476Z,1.20
2018-07-03T11:29:33.801Z,1.20
2018-07-03T11:32:04.345Z,1.20
2018-07-03T11:34:33.664Z,1.20
2018-07-03T11:37:03.007Z,1.10
2018-07-03T11:39:32.373Z,1.27
2018-07-03T11:42:01.746Z,1.35
2018-07-03T11:44:31.082Z,1.30
2018-07-03T11:47:00.472Z,1.15
2018-07-03T11:49:29.831Z,1.37
2018-07-03T11:51:59.136Z,1.40
2018-07-03T11:54:28.425Z,1.40
2018-07-03T11:56:57.746Z,1.30
2018-07-03T11:59:27.077Z,1.30
2018-07-03T12:01:56.498Z,1.40
2018-07-03T12:04:25.857Z,1.40
2018-07-03T12:06:55.831Z,1.50
2018-07-03T12:09:25.269Z,2.72
2018-07-03T12:11:55.282Z,3.65
2018-07-03T12:14:24.652Z,4.43
2018-07-03T12:16:54.056Z,4.75
2018-07-03T12:19:23.402Z,4.40
2018-07-03T12:21:52.677Z,4.40
2018-07-03T12:24:22.032Z,4.62
2018-07-03T12:26:51.464Z,4.65
2018-07-03T12:29:20.795Z,4.57
2018-07-03T12:31:50.109Z,4.83
2018-07-03T12:34:19.698Z,5.12
2018-07-03T12:36:49.044Z,4.53
2018-07-03T12:39:18.385Z,4.97
2018-07-03T12:41:47.712Z,4.80
2018-07-03T12:44:17.073Z,5.00
2018-07-03T12:46:46.453Z,4.70
2018-07-03T12:49:15.827Z,5.37
2018-07-03T12:51:45.122Z,5.10
2018-07-03T12:54:14.441Z,5.07
2018-07-03T12:56:43.806Z,4.90
2018-07-03T12:59:13.192Z,5.37
2018-07-03T13:01:42.521Z,5.00
2018-07-03T13:04:11.894Z,4.97
2018-07-03T13:06:41.515Z,5.50
2018-07-03T13:09:12.098Z,5.05
2018-07-03T13:11:41.807Z,4.67
2018-07-03T13:14:11.268Z,5.60
2018-07-03T13:16:40.611Z,5.10
2018-07-03T13:19:41.157Z,4.90
2018-07-03T13:22:11.050Z,6.04
2018-07-03T13:24:40.127Z,5.00
2018-07-03T13:27:09.480Z,4.55
2018-07-03T13:29:38.810Z,5.73
2018-07-03T13:32:08.198Z,5.83
2018-07-03T13:34:38.794Z,5.87
2018-07-03T13:37:08.347Z,5.53
2018-07-03T13:39:37.614Z,5.45
2018-07-03T13:42:07.001Z,5.20
2018-07-03T13:44:36.327Z,5.58
2018-07-03T13:47:05.739Z,5.30
2018-07-03T13:49:35.097Z,5.62
2018-07-03T13:52:04.417Z,5.70
2018-07-03T13:54:33.788Z,5.80
2018-07-03T13:57:03.115Z,5.50
2018-07-03T13:59:32.450Z,5.87
2018-07-03T14:02:01.815Z,5.50
2018-07-03T14:04:31.125Z,5.50
2018-07-03T14:07:00.422Z,5.43
2018-07-03T14:09:29.736Z,5.47
2018-07-03T14:11:59.044Z,5.40
2018-07-03T14:14:28.346Z,5.33
2018-07-03T14:16:57.660Z,5.50
2018-07-03T14:19:27.041Z,4.90
2018-07-03T14:21:56.431Z,5.00
2018-07-03T14:24:25.820Z,4.78
2018-07-03T14:26:55.189Z,4.62
2018-07-03T14:29:24.758Z,4.80
2018-07-03T14:31:54.141Z,5.10
2018-07-03T14:34:23.432Z,4.67
2018-07-03T14:36:52.886Z,4.15
2018-07-03T14:39:22.265Z,4.33
2018-07-03T14:41:51.590Z,4.17
2018-07-03T14:44:20.976Z,4.28
2018-07-03T14:46:50.299Z,4.17
2018-07-03T14:49:19.714Z,3.80
2018-07-03T14:51:49.015Z,3.15
2018-07-03T14:54:18.298Z,3.47
2018-07-03T14:56:47.665Z,3.40
2018-07-03T14:59:17.043Z,3.08
2018-07-03T15:01:46.405Z,3.00
2018-07-03T15:04:15.721Z,3.15
2018-07-03T15:06:45.018Z,3.00
2018-07-03T15:09:16.356Z,3.07
2018-07-03T15:11:46.018Z,3.35
2018-07-03T15:14:15.792Z,3.30
2018-07-03T15:16:45.285Z,3.00
2018-07-03T15:19:19.745Z,3.33
2018-07-03T15:21:49.089Z,2.77
2018-07-03T15:24:18.405Z,3.20
2018-07-03T15:26:47.771Z,2.80
2018-07-03T15:32:16.490Z,2.98
2018-07-03T15:34:45.819Z,2.87
2018-07-03T15:37:15.198Z,2.80
2018-07-03T15:39:44.751Z,3.10
2018-07-03T15:42:14.092Z,2.90
2018-07-03T15:45:00.160Z,3.10
2018-07-03T15:47:29.525Z,3.12
2018-07-03T15:49:58.806Z,2.98
2018-07-03T15:52:28.106Z,2.98
2018-07-03T15:54:57.659Z,2.83
2018-07-03T15:57:27.115Z,2.90
2018-07-03T15:59:56.442Z,3.00
2018-07-03T16:02:26.139Z,2.75
2018-07-03T16:05:14.823Z,2.80
2018-07-03T16:07:58.929Z,2.77
2018-07-03T16:10:28.277Z,2.77
2018-07-03T16:12:57.986Z,2.98
2018-07-03T16:15:27.392Z,2.90
2018-07-03T16:17:56.859Z,3.17
2018-07-03T16:20:31.357Z,2.77
2018-07-03T16:23:00.703Z,3.00
2018-07-03T16:25:30.108Z,2.77
2018-07-03T16:27:59.315Z,3.00
2018-07-03T16:30:28.679Z,2.90
2018-07-03T16:32:57.958Z,2.70
2018-07-03T16:35:27.263Z,2.77
2018-07-03T16:37:56.875Z,2.70
2018-07-03T16:40:27.274Z,2.66
2018-07-03T16:42:56.692Z,2.77
2018-07-03T16:45:26.062Z,2.83
2018-07-03T16:47:55.338Z,2.80
2018-07-03T16:50:24.704Z,2.50
2018-07-03T16:52:54.058Z,2.65
2018-07-03T16:55:23.479Z,2.83
2018-07-03T16:57:52.860Z,2.87
2018-07-03T17:00:28.798Z,2.73
2018-07-03T17:02:58.374Z,2.87
2018-07-03T17:05:27.703Z,2.75
2018-07-03T17:07:57.135Z,2.83
2018-07-03T17:10:26.535Z,3.92
2018-07-03T17:12:56.005Z,4.07
2018-07-03T17:15:25.042Z,2.80
2018-07-03T17:17:57.114Z,2.40
2018-07-03T17:20:26.657Z,2.70
2018-07-03T17:22:56.103Z,2.67
2018-07-03T17:25:25.435Z,2.77
2018-07-03T17:27:54.783Z,2.53
2018-07-03T17:30:24.337Z,2.50
2018-07-03T17:32:54.975Z,2.60
2018-07-03T17:35:24.382Z,2.33
2018-07-03T17:37:54.075Z,2.60
2018-07-03T17:40:40.341Z,2.67
2018-07-03T17:44:24.913Z,2.70
2018-07-03T17:46:54.363Z,2.80
2018-07-03T17:49:23.779Z,2.72
2018-07-03T17:51:53.280Z,2.90
2018-07-03T17:54:22.728Z,2.43
2018-07-03T17:56:52.097Z,2.60
2018-07-03T17:59:22.676Z,2.70
2018-07-03T18:01:52.100Z,2.70
2018-07-03T18:04:21.403Z,2.50
2018-07-03T18:06:50.919Z,2.67
2018-07-03T18:09:20.364Z,2.90
2018-07-03T18:11:49.959Z,2.58
2018-07-03T18:14:19.554Z,2.92
2018-07-03T18:16:49.094Z,2.80
2018-07-03T18:19:23.666Z,2.63
2018-07-03T18:21:53.437Z,2.70
2018-07-03T18:24:23.287Z,3.00
2018-07-03T18:26:52.623Z,2.75
2018-07-03T18:29:22.287Z,2.77
2018-07-03T18:32:06.202Z,2.90
2018-07-03T18:34:35.712Z,2.70
2018-07-03T18:37:05.084Z,2.83
2018-07-03T18:39:34.424Z,2.97
2018-07-03T18:42:04.101Z,2.90
2018-07-03T18:44:34.158Z,2.72
2018-07-03T18:47:03.634Z,3.10
2018-07-03T18:49:33.026Z,2.70
2018-07-03T18:52:02.520Z,3.00
2018-07-03T18:54:32.290Z,2.90
2018-07-03T18:57:02.672Z,2.90
2018-07-03T18:59:32.156Z,3.10
2018-07-03T19:02:01.613Z,3.00
2018-07-03T19:04:30.947Z,2.75
2018-07-03T19:07:00.304Z,3.00
2018-07-03T19:09:30.020Z,3.08
2018-07-03T19:11:59.624Z,3.00
2018-07-03T19:14:28.922Z,3.22
2018-07-03T19:16:58.295Z,3.10
2018-07-03T19:19:27.707Z,3.30
2018-07-03T19:21:57.034Z,3.25
2018-07-03T19:24:26.386Z,3.20
2018-07-03T19:26:55.747Z,3.53
2018-07-03T19:29:25.225Z,3.42
2018-07-03T19:31:54.562Z,3.50
2018-07-03T19:34:24.125Z,3.17
2018-07-03T19:36:53.425Z,3.58
2018-07-03T19:39:22.864Z,3.40
2018-07-03T19:41:52.503Z,3.50
2018-07-03T19:44:21.907Z,3.60
2018-07-03T19:46:51.357Z,3.40
2018-07-03T19:49:20.759Z,3.55
2018-07-03T19:51:50.048Z,3.77
2018-07-03T19:54:19.356Z,3.80
2018-07-03T19:56:48.650Z,3.52
2018-07-03T19:59:17.955Z,3.60
2018-07-03T20:01:47.261Z,3.80
2018-07-03T20:04:16.692Z,3.50
2018-07-03T20:06:46.016Z,3.70
2018-07-03T20:09:15.315Z,3.90
2018-07-03T20:11:44.759Z,3.72
2018-07-03T20:14:14.063Z,3.83
2018-07-03T20:16:43.492Z,3.80
2018-07-03T20:19:15.036Z,3.87
2018-07-03T20:21:46.059Z,3.83
2018-07-03T20:24:16.905Z,4.04
2018-07-03T20:26:46.255Z,4.17
2018-07-03T20:29:15.546Z,4.42
2018-07-03T20:31:44.890Z,3.63
2018-07-03T20:34:14.325Z,3.90
2018-07-03T20:36:44.572Z,3.94
2018-07-03T20:39:13.964Z,3.83
2018-07-03T20:41:43.323Z,3.77
2018-07-03T20:44:12.660Z,4.17
2018-07-03T20:46:41.990Z,4.05
2018-07-03T20:49:11.308Z,4.03
2018-07-03T20:51:40.673Z,4.43
2018-07-03T20:54:10.004Z,4.13
2018-07-03T20:56:39.311Z,4.60
2018-07-03T20:59:08.688Z,4.30
2018-07-03T21:01:38.048Z,4.80
2018-07-03T21:04:07.581Z,4.45
2018-07-03T21:06:36.912Z,4.80
2018-07-03T21:09:08.433Z,4.33
2018-07-03T21:11:37.848Z,4.67
2018-07-03T21:14:07.415Z,4.80
2018-07-03T21:16:36.675Z,5.00
2018-07-03T21:19:06.186Z,4.97
2018-07-03T21:21:35.568Z,4.87
2018-07-03T21:24:05.104Z,4.80
2018-07-03T21:26:35.390Z,5.07
2018-07-03T21:29:08.565Z,4.90
2018-07-03T21:31:37.862Z,4.90
2018-07-03T21:34:07.381Z,5.33
2018-07-03T21:36:36.652Z,5.20
2018-07-03T21:39:07.626Z,5.07
2018-07-03T21:41:36.920Z,5.10
2018-07-03T21:44:06.310Z,5.17
2018-07-03T21:46:35.669Z,5.37
2018-07-03T21:49:04.989Z,5.28
2018-07-03T21:51:34.269Z,5.33
2018-07-03T21:54:03.556Z,5.17
2018-07-03T21:56:32.911Z,5.20
2018-07-03T21:59:02.277Z,6.00
2018-07-03T22:01:31.698Z,5.43
2018-07-03T22:04:01.072Z,5.53
2018-07-03T22:06:30.429Z,6.10
2018-07-03T22:08:59.714Z,5.77
2018-07-03T22:11:29.017Z,5.87
2018-07-03T22:13:58.146Z,5.50
2018-07-03T22:16:27.449Z,5.67
2018-07-03T22:18:56.869Z,5.30
2018-07-03T22:21:26.182Z,5.15
2018-07-03T22:23:55.526Z,6.13
2018-07-03T22:26:24.823Z,5.90
2018-07-03T22:28:54.151Z,5.93
2018-07-03T22:31:23.463Z,6.03
2018-07-03T22:33:52.768Z,6.30
2018-07-03T22:36:22.090Z,5.57
2018-07-03T22:38:51.364Z,5.43
2018-07-03T22:41:20.795Z,5.57
2018-07-03T22:43:50.115Z,5.53
2018-07-03T22:46:19.506Z,5.95
2018-07-03T22:48:48.843Z,5.80
2018-07-03T22:51:18.244Z,5.37
2018-07-03T22:53:47.544Z,5.30
2018-07-03T22:56:16.834Z,5.57
2018-07-03T22:58:46.098Z,5.30
2018-07-03T23:01:15.390Z,5.53
2018-07-03T23:03:44.666Z,5.50
2018-07-03T23:06:14.028Z,5.30
2018-07-03T23:08:43.379Z,4.83
2018-07-03T23:11:12.650Z,5.33
2018-07-03T23:13:41.999Z,5.10
2018-07-03T23:16:11.380Z,4.50
2018-07-03T23:18:40.666Z,4.30
2018-07-03T23:21:09.985Z,5.00
2018-07-03T23:23:39.285Z,4.97
2018-07-03T23:26:08.664Z,5.53
2018-07-03T23:28:37.954Z,5.53
2018-07-03T23:31:07.367Z,5.37
2018-07-03T23:33:36.651Z,5.20
2018-07-03T23:36:06.303Z,5.57
2018-07-03T23:38:35.645Z,5.00
2018-07-03T23:41:05.702Z,5.22
2018-07-03T23:43:35.058Z,5.20
2018-07-03T23:46:02.790Z,5.80
2018-07-03T23:48:48.930Z,5.10
2018-07-03T23:51:35.060Z,5.10
2018-07-03T23:54:21.026Z,5.40
2018-07-03T23:57:07.238Z,5.07
2018-07-03T23:59:53.454Z,5.00
